createdAt,value
2018-05-24T00:03:59.495Z,9.60
2018-05-24T00:09:01.263Z,10.63
2018-05-24T00:14:03.043Z,9.87
2018-05-24T00:19:04.845Z,8.67
2018-05-24T00:24:05.867Z,9.67
2018-05-24T00:29:06.889Z,10.37
2018-05-24T00:34:07.898Z,9.87
2018-05-24T00:39:09.638Z,10.07
2018-05-24T00:44:10.629Z,9.20
2018-05-24T00:49:12.392Z,9.50
2018-05-24T00:54:14.150Z,9.77
2018-05-24T00:59:15.150Z,10.27
2018-05-24T01:04:16.157Z,9.40
2018-05-24T01:09:17.167Z,10.23
2018-05-24T01:14:18.166Z,10.13
2018-05-24T01:19:19.166Z,10.00
2018-05-24T01:24:20.942Z,9.77
2018-05-24T01:29:22.701Z,10.63
2018-05-24T01:34:23.714Z,10.90
2018-05-24T01:39:24.726Z,10.60
2018-05-24T01:44:26.491Z,10.63
2018-05-24T01:49:27.505Z,10.33
2018-05-24T01:54:28.510Z,10.50
2018-05-24T01:59:30.278Z,11.00
2018-05-24T02:04:31.307Z,10.57
2018-05-24T02:09:32.330Z,10.30
2018-05-24T02:14:33.346Z,11.47
2018-05-24T02:19:34.353Z,10.80
2018-05-24T02:24:35.378Z,10.93
2018-05-24T02:29:36.395Z,10.67
2018-05-24T02:34:37.435Z,10.20
2018-05-24T02:39:38.459Z,10.77
2018-05-24T02:44:40.226Z,11.10
2018-05-24T02:49:41.235Z,10.80
2018-05-24T02:54:42.255Z,11.50
2018-05-24T02:59:44.040Z,11.90
2018-05-24T03:04:45.887Z,11.53
2018-05-24T03:09:46.919Z,11.90
2018-05-24T03:14:47.934Z,11.77
2018-05-24T03:19:48.942Z,10.70
2018-05-24T03:24:49.974Z,10.90
2018-05-24T03:29:50.998Z,11.10
2018-05-24T03:34:52.762Z,11.23
2018-05-24T03:39:56.436Z,11.43
2018-05-24T03:44:57.437Z,11.33
2018-05-24T03:49:58.467Z,12.70
2018-05-24T03:54:59.483Z,12.00
2018-05-24T04:00:12.763Z,12.20
2018-05-24T04:05:13.779Z,13.10
2018-05-24T04:10:14.791Z,12.17
2018-05-24T04:15:15.796Z,11.97
2018-05-24T04:20:17.565Z,12.70
2018-05-24T04:25:19.356Z,12.10
2018-05-24T04:30:20.372Z,12.47
2018-05-24T04:35:22.150Z,8.47
2018-05-24T04:40:23.161Z,12.33
2018-05-24T04:45:24.188Z,11.43
2018-05-24T04:50:25.954Z,10.77
2018-05-24T04:55:27.706Z,10.63
2018-05-24T05:00:28.733Z,11.07
2018-05-24T05:05:29.737Z,12.90
2018-05-24T05:10:30.754Z,12.97
2018-05-24T05:15:31.765Z,13.20
2018-05-24T05:20:33.535Z,13.20
2018-05-24T05:25:34.545Z,13.37
2018-05-24T05:30:35.628Z,12.53
2018-05-24T05:35:37.333Z,13.20
2018-05-24T05:40:39.098Z,14.67
2018-05-24T05:45:40.114Z,13.30
2018-05-24T05:50:41.148Z,13.10
2018-05-24T05:55:42.178Z,12.87
2018-05-24T06:00:43.935Z,13.40
2018-05-24T06:05:44.958Z,12.60
2018-05-24T06:10:45.995Z,13.73
2018-05-24T06:15:47.025Z,14.00
2018-05-24T06:20:48.030Z,15.50
2018-05-24T06:25:49.062Z,13.40
2018-05-24T06:30:50.902Z,13.10
2018-05-24T06:35:52.951Z,14.90
2018-05-24T06:40:53.957Z,12.43
2018-05-24T06:45:55.710Z,12.90
2018-05-24T06:50:56.737Z,11.70
2018-05-24T06:55:57.765Z,10.63
2018-05-24T07:00:59.527Z,11.43
2018-05-24T07:06:01.371Z,10.60
2018-05-24T07:11:02.325Z,10.40
2018-05-24T07:16:03.349Z,9.87
2018-05-24T07:21:04.430Z,10.00
2018-05-24T07:26:05.443Z,12.37
2018-05-24T07:31:07.190Z,12.87
2018-05-24T07:36:08.205Z,11.57
2018-05-24T07:41:09.210Z,11.97
2018-05-24T07:46:10.222Z,11.70
2018-05-24T07:51:11.235Z,11.53
2018-05-24T07:56:12.239Z,10.80
2018-05-24T08:01:13.250Z,11.20
2018-05-24T08:06:14.258Z,10.30
2018-05-24T08:11:15.284Z,10.87
2018-05-24T08:16:16.326Z,10.77
2018-05-24T08:21:17.358Z,10.83
2018-05-24T08:26:18.398Z,11.77
2018-05-24T08:31:19.417Z,9.50
2018-05-24T08:36:21.196Z,9.70
2018-05-24T08:41:22.978Z,9.37
2018-05-24T08:46:23.997Z,8.60
2018-05-24T08:51:25.023Z,8.70
2018-05-24T08:56:26.048Z,7.60
2018-05-24T09:01:27.834Z,7.37
2018-05-24T09:06:29.573Z,7.93
2018-05-24T09:11:31.813Z,8.30
2018-05-24T09:16:34.126Z,7.80
2018-05-24T09:21:35.163Z,8.83
2018-05-24T09:26:36.179Z,8.30
2018-05-24T09:31:37.938Z,9.20
2018-05-24T09:36:38.947Z,9.30
2018-05-24T09:41:39.954Z,9.60
2018-05-24T09:46:41.705Z,8.50
2018-05-24T09:51:42.715Z,9.80
2018-05-24T09:56:44.458Z,9.80
2018-05-24T10:01:45.471Z,10.67
2018-05-24T10:06:46.474Z,10.20
2018-05-24T10:11:47.489Z,9.60
2018-05-24T10:16:48.513Z,9.40
2018-05-24T10:21:50.276Z,9.40
2018-05-24T10:26:51.295Z,9.77
2018-05-24T10:31:52.309Z,9.80
2018-05-24T10:36:53.314Z,7.93
2018-05-24T10:41:54.338Z,9.53
2018-05-24T10:46:55.354Z,8.77
2018-05-24T10:51:56.382Z,9.47
2018-05-24T10:56:58.758Z,10.03
2018-05-24T11:01:59.786Z,8.20
2018-05-24T11:07:00.830Z,10.33
2018-05-24T11:12:02.595Z,9.87
2018-05-24T11:17:03.770Z,10.83
2018-05-24T11:22:05.532Z,10.33
2018-05-24T11:27:06.550Z,9.30
2018-05-24T11:32:07.637Z,10.20
2018-05-24T11:37:08.678Z,9.60
2018-05-24T11:42:09.587Z,10.20
2018-05-24T11:47:11.357Z,9.63
2018-05-24T11:52:13.160Z,9.77
2018-05-24T11:57:14.179Z,8.67
2018-05-24T12:02:15.182Z,8.60
2018-05-24T12:07:16.194Z,8.13
2018-05-24T12:12:17.198Z,7.37
2018-05-24T12:17:18.203Z,8.40
2018-05-24T12:22:19.219Z,7.20
2018-05-24T12:27:20.223Z,7.70
2018-05-24T12:32:21.231Z,7.90
2018-05-24T12:37:22.246Z,8.00
2018-05-24T12:42:23.986Z,9.40
2018-05-24T12:47:24.988Z,8.37
2018-05-24T12:52:26.015Z,9.00
2018-05-24T12:57:27.021Z,8.30
2018-05-24T13:02:28.050Z,8.80
2018-05-24T13:07:29.802Z,7.97
2018-05-24T13:12:30.819Z,8.03
2018-05-24T13:17:31.817Z,7.60
2018-05-24T13:22:32.821Z,7.47
2018-05-24T13:27:33.847Z,6.80
2018-05-24T13:32:34.861Z,6.10
2018-05-24T13:37:35.862Z,7.13
2018-05-24T13:42:36.871Z,6.50
2018-05-24T13:47:37.866Z,6.20
2018-05-24T13:52:38.929Z,6.43
2018-05-24T13:57:42.491Z,6.50
2018-05-24T14:02:44.890Z,5.53
2018-05-24T14:07:45.914Z,5.93
2018-05-24T14:12:47.665Z,5.60
2018-05-24T14:17:48.662Z,6.40
2018-05-24T14:22:50.420Z,5.70
2018-05-24T14:27:52.647Z,6.00
2018-05-24T14:32:53.645Z,4.87
2018-05-24T14:37:54.651Z,5.10
2018-05-24T14:42:56.393Z,4.63
2018-05-24T14:47:57.401Z,4.30
2018-05-24T14:52:58.401Z,4.23
2018-05-24T14:57:59.406Z,4.30
2018-05-24T15:03:00.434Z,3.70
2018-05-24T15:08:01.455Z,4.10
2018-05-24T15:13:02.478Z,3.60
2018-05-24T15:18:04.229Z,3.43
2018-05-24T15:23:05.243Z,3.43
2018-05-24T15:28:06.246Z,3.67
2018-05-24T15:33:07.258Z,3.53
2018-05-24T15:38:08.288Z,3.23
2018-05-24T15:43:10.071Z,4.40
2018-05-24T15:48:11.070Z,4.00
2018-05-24T15:53:12.065Z,3.73
2018-05-24T15:58:13.846Z,3.77
2018-05-24T16:03:14.891Z,4.00
2018-05-24T16:08:15.898Z,4.17
2018-05-24T16:13:18.382Z,3.70
2018-05-24T16:18:19.414Z,4.40
2018-05-24T16:23:21.166Z,3.80
2018-05-24T16:28:22.198Z,4.00
2018-05-24T16:33:23.220Z,3.80
2018-05-24T16:38:24.986Z,4.17
2018-05-24T16:43:26.730Z,4.30
2018-05-24T16:48:27.757Z,4.07
2018-05-24T16:53:28.780Z,4.83
2018-05-24T16:58:29.818Z,4.70
2018-05-24T17:03:30.842Z,4.40
2018-05-24T17:08:31.854Z,4.50
2018-05-24T17:13:33.626Z,4.80
2018-05-24T17:18:34.654Z,4.00
2018-05-24T17:23:35.686Z,4.50
2018-05-24T17:28:36.730Z,4.30
2018-05-24T17:33:37.732Z,4.23
2018-05-24T17:38:38.725Z,4.53
2018-05-24T17:43:40.463Z,4.70
2018-05-24T17:48:41.482Z,4.70
2018-05-24T17:53:42.490Z,4.47
2018-05-24T17:58:43.510Z,5.17
2018-05-24T18:03:44.521Z,4.60
2018-05-24T18:08:45.556Z,4.00
2018-05-24T18:13:46.562Z,4.47
2018-05-24T18:18:47.587Z,4.20
2018-05-24T18:23:49.967Z,4.20
2018-05-24T18:28:51.010Z,4.00
2018-05-24T18:33:52.022Z,4.50
2018-05-24T18:38:53.819Z,4.00
2018-05-24T18:43:54.833Z,4.23
2018-05-24T18:48:55.873Z,4.30
2018-05-24T18:53:56.893Z,4.30
2018-05-24T18:58:57.894Z,4.50
2018-05-24T19:03:58.907Z,4.20
2018-05-24T19:09:00.718Z,4.50
2018-05-24T19:14:01.756Z,4.40
2018-05-24T19:19:02.805Z,4.93
2018-05-24T19:24:03.810Z,4.40
2018-05-24T19:29:04.840Z,4.60
2018-05-24T19:34:05.857Z,4.90
2018-05-24T19:39:06.950Z,4.37
2018-05-24T19:44:08.002Z,3.97
2018-05-24T19:49:09.051Z,4.77
2018-05-24T19:54:10.086Z,4.60
2018-05-24T19:59:11.143Z,4.50
2018-05-24T20:04:12.193Z,4.43
2018-05-24T20:09:14.306Z,4.73
2018-05-24T20:14:15.363Z,4.80
2018-05-24T20:19:16.411Z,4.77
2018-05-24T20:24:17.496Z,5.03
2018-05-24T20:29:18.538Z,4.77
2018-05-24T20:34:19.593Z,4.90
2018-05-24T20:39:20.658Z,5.30
2018-05-24T20:44:22.423Z,5.33
2018-05-24T20:49:24.201Z,5.07
2018-05-24T20:54:25.957Z,5.70
2018-05-24T20:59:26.972Z,6.33
2018-05-24T21:04:28.018Z,6.50
2018-05-24T21:09:29.077Z,6.80
2018-05-24T21:14:30.086Z,5.90
2018-05-24T21:19:31.104Z,6.87
2018-05-24T21:24:32.114Z,6.90
2018-05-24T21:29:33.852Z,6.57
2018-05-24T21:34:34.869Z,7.27
2018-05-24T21:39:36.319Z,6.57
2018-05-24T21:44:37.358Z,6.07
2018-05-24T21:49:38.369Z,6.63
2018-05-24T21:54:39.401Z,7.07
2018-05-24T21:59:41.182Z,6.93
2018-05-24T22:04:42.939Z,6.67
2018-05-24T22:09:44.706Z,6.40
2018-05-24T22:14:45.707Z,6.47
2018-05-24T22:19:46.710Z,6.30
2018-05-24T22:24:47.762Z,7.03
2018-05-24T22:29:48.787Z,6.73
2018-05-24T22:34:49.803Z,7.13
2018-05-24T22:39:50.811Z,7.70
2018-05-24T22:44:51.826Z,6.60
2018-05-24T22:49:53.577Z,6.33
2018-05-24T22:54:55.010Z,7.10
2018-05-24T22:59:56.046Z,6.83
2018-05-24T23:04:57.870Z,6.60
2018-05-24T23:09:58.843Z,6.43
2018-05-24T23:14:59.870Z,6.03
2018-05-24T23:20:00.904Z,6.43
2018-05-24T23:25:01.955Z,6.47
2018-05-24T23:30:02.976Z,6.47
2018-05-24T23:35:04.003Z,7.20
2018-05-24T23:40:05.030Z,7.40
2018-05-24T23:45:06.074Z,7.63
2018-05-24T23:50:07.838Z,8.07
2018-05-24T23:55:08.854Z,8.83
